sensor_id;sensor_type;location;lat;lon;timestamp;P1;durP1;ratioP1;P2;durP2;ratioP2
43160;SDS011;40968;52.342;5.528;2023-07-22T00:02:10;15.07;;;5.45;;
43160;SDS011;40968;52.342;5.528;2023-07-22T00:04:38;16.70;;;5.90;;
43160;SDS011;40968;52.342;5.528;2023-07-22T00:07:05;11.90;;;4.85;;
43160;SDS011;40968;52.342;5.528;2023-07-22T00:09:32;19.08;;;5.32;;
43160;SDS011;40968;52.342;5.528;2023-07-22T00:11:59;16.63;;;5.22;;
43160;SDS011;40968;52.342;5.528;2023-07-22T00:14:26;14.95;;;4.57;;
43160;SDS011;40968;52.342;5.528;2023-07-22T00:16:53;16.17;;;5.05;;
43160;SDS011;40968;52.342;5.528;2023-07-22T00:19:20;19.15;;;5.05;;
43160;SDS011;40968;52.342;5.528;2023-07-22T00:21:48;14.48;;;4.93;;
43160;SDS011;40968;52.342;5.528;2023-07-22T00:24:15;14.13;;;4.72;;
43160;SDS011;40968;52.342;5.528;2023-07-22T00:26:41;14.90;;;4.93;;
43160;SDS011;40968;52.342;5.528;2023-07-22T00:29:08;15.52;;;4.95;;
43160;SDS011;40968;52.342;5.528;2023-07-22T00:31:35;12.18;;;4.55;;
43160;SDS011;40968;52.342;5.528;2023-07-22T00:34:02;14.95;;;4.85;;
43160;SDS011;40968;52.342;5.528;2023-07-22T00:36:28;14.50;;;5.60;;
43160;SDS011;40968;52.342;5.528;2023-07-22T00:38:56;14.32;;;5.25;;
43160;SDS011;40968;52.342;5.528;2023-07-22T00:41:23;18.52;;;6.45;;
43160;SDS011;40968;52.342;5.528;2023-07-22T00:43:50;17.60;;;6.60;;
43160;SDS011;40968;52.342;5.528;2023-07-22T00:46:16;15.07;;;5.97;;
43160;SDS011;40968;52.342;5.528;2023-07-22T00:48:43;22.20;;;7.22;;
43160;SDS011;40968;52.342;5.528;2023-07-22T00:51:11;20.58;;;6.20;;
43160;SDS011;40968;52.342;5.528;2023-07-22T00:53:38;19.00;;;6.30;;
43160;SDS011;40968;52.342;5.528;2023-07-22T00:56:06;22.77;;;6.93;;
43160;SDS011;40968;52.342;5.528;2023-07-22T00:58:33;23.25;;;6.88;;
43160;SDS011;40968;52.342;5.528;2023-07-22T01:01:00;19.60;;;6.80;;
43160;SDS011;40968;52.342;5.528;2023-07-22T01:03:27;21.38;;;7.60;;
43160;SDS011;40968;52.342;5.528;2023-07-22T01:05:54;18.90;;;7.15;;
43160;SDS011;40968;52.342;5.528;2023-07-22T01:08:22;28.25;;;8.45;;
43160;SDS011;40968;52.342;5.528;2023-07-22T01:10:49;24.52;;;8.18;;
43160;SDS011;40968;52.342;5.528;2023-07-22T01:13:16;25.42;;;8.35;;
43160;SDS011;40968;52.342;5.528;2023-07-22T01:15:44;20.73;;;7.43;;
43160;SDS011;40968;52.342;5.528;2023-07-22T01:18:11;27.42;;;9.00;;
43160;SDS011;40968;52.342;5.528;2023-07-22T01:20:38;36.15;;;9.85;;
43160;SDS011;40968;52.342;5.528;2023-07-22T01:23:07;29.45;;;8.30;;
43160;SDS011;40968;52.342;5.528;2023-07-22T01:25:33;28.60;;;8.10;;
43160;SDS011;40968;52.342;5.528;2023-07-22T01:28:00;37.30;;;8.70;;
43160;SDS011;40968;52.342;5.528;2023-07-22T01:30:26;29.30;;;8.90;;
43160;SDS011;40968;52.342;5.528;2023-07-22T01:32:53;19.50;;;7.60;;
43160;SDS011;40968;52.342;5.528;2023-07-22T01:35:20;29.05;;;9.57;;
43160;SDS011;40968;52.342;5.528;2023-07-22T01:37:47;23.38;;;8.63;;
43160;SDS011;40968;52.342;5.528;2023-07-22T01:40:15;30.00;;;9.65;;
43160;SDS011;40968;52.342;5.528;2023-07-22T01:42:43;31.27;;;9.63;;
43160;SDS011;40968;52.342;5.528;2023-07-22T01:45:09;28.40;;;9.85;;
43160;SDS011;40968;52.342;5.528;2023-07-22T01:47:36;30.35;;;9.30;;
43160;SDS011;40968;52.342;5.528;2023-07-22T01:50:05;31.30;;;10.48;;
43160;SDS011;40968;52.342;5.528;2023-07-22T01:52:32;33.05;;;10.93;;
43160;SDS011;40968;52.342;5.528;2023-07-22T01:54:59;24.67;;;8.65;;
43160;SDS011;40968;52.342;5.528;2023-07-22T01:57:27;34.63;;;11.82;;
43160;SDS011;40968;52.342;5.528;2023-07-22T01:59:54;33.50;;;11.52;;
43160;SDS011;40968;52.342;5.528;2023-07-22T02:02:20;27.67;;;9.73;;
43160;SDS011;40968;52.342;5.528;2023-07-22T02:04:47;36.13;;;11.30;;
43160;SDS011;40968;52.342;5.528;2023-07-22T02:07:14;39.03;;;12.25;;
43160;SDS011;40968;52.342;5.528;2023-07-22T02:09:40;44.67;;;11.52;;
43160;SDS011;40968;52.342;5.528;2023-07-22T02:12:07;28.02;;;10.93;;
43160;SDS011;40968;52.342;5.528;2023-07-22T02:14:36;39.65;;;11.23;;
43160;SDS011;40968;52.342;5.528;2023-07-22T02:17:04;35.03;;;12.52;;
43160;SDS011;40968;52.342;5.528;2023-07-22T02:19:34;35.95;;;11.90;;
43160;SDS011;40968;52.342;5.528;2023-07-22T02:22:00;36.80;;;12.88;;
43160;SDS011;40968;52.342;5.528;2023-07-22T02:24:27;25.48;;;9.55;;
43160;SDS011;40968;52.342;5.528;2023-07-22T02:26:54;33.10;;;12.27;;
43160;SDS011;40968;52.342;5.528;2023-07-22T02:29:21;39.28;;;13.90;;
43160;SDS011;40968;52.342;5.528;2023-07-22T02:31:49;39.28;;;11.98;;
43160;SDS011;40968;52.342;5.528;2023-07-22T02:34:16;38.00;;;12.50;;
43160;SDS011;40968;52.342;5.528;2023-07-22T02:36:43;43.92;;;12.35;;
43160;SDS011;40968;52.342;5.528;2023-07-22T02:39:09;40.78;;;14.35;;
43160;SDS011;40968;52.342;5.528;2023-07-22T02:41:36;40.60;;;13.85;;
43160;SDS011;40968;52.342;5.528;2023-07-22T02:44:03;40.08;;;13.30;;
43160;SDS011;40968;52.342;5.528;2023-07-22T02:46:29;47.85;;;14.73;;
43160;SDS011;40968;52.342;5.528;2023-07-22T02:48:58;46.72;;;13.50;;
43160;SDS011;40968;52.342;5.528;2023-07-22T02:51:25;39.95;;;13.25;;
43160;SDS011;40968;52.342;5.528;2023-07-22T02:53:51;41.88;;;14.40;;
43160;SDS011;40968;52.342;5.528;2023-07-22T02:56:18;40.28;;;12.75;;
43160;SDS011;40968;52.342;5.528;2023-07-22T02:58:45;52.25;;;14.68;;
43160;SDS011;40968;52.342;5.528;2023-07-22T03:01:13;52.90;;;15.35;;
43160;SDS011;40968;52.342;5.528;2023-07-22T03:03:39;38.40;;;13.10;;
43160;SDS011;40968;52.342;5.528;2023-07-22T03:06:07;43.50;;;14.07;;
43160;SDS011;40968;52.342;5.528;2023-07-22T03:08:34;44.45;;;14.25;;
43160;SDS011;40968;52.342;5.528;2023-07-22T03:11:01;40.65;;;14.02;;
43160;SDS011;40968;52.342;5.528;2023-07-22T03:13:28;39.60;;;13.30;;
43160;SDS011;40968;52.342;5.528;2023-07-22T03:15:55;47.47;;;14.13;;
43160;SDS011;40968;52.342;5.528;2023-07-22T03:18:22;49.15;;;15.40;;
43160;SDS011;40968;52.342;5.528;2023-07-22T03:20:49;39.58;;;13.75;;
43160;SDS011;40968;52.342;5.528;2023-07-22T03:23:18;45.20;;;14.27;;
43160;SDS011;40968;52.342;5.528;2023-07-22T03:25:46;42.53;;;14.63;;
43160;SDS011;40968;52.342;5.528;2023-07-22T03:28:13;38.08;;;13.55;;
43160;SDS011;40968;52.342;5.528;2023-07-22T03:30:40;35.22;;;11.07;;
43160;SDS011;40968;52.342;5.528;2023-07-22T03:33:07;36.97;;;12.57;;
43160;SDS011;40968;52.342;5.528;2023-07-22T03:35:34;37.15;;;11.45;;
43160;SDS011;40968;52.342;5.528;2023-07-22T03:38:01;38.80;;;12.30;;
43160;SDS011;40968;52.342;5.528;2023-07-22T03:40:31;42.05;;;13.60;;
43160;SDS011;40968;52.342;5.528;2023-07-22T03:42:58;36.72;;;14.20;;
43160;SDS011;40968;52.342;5.528;2023-07-22T03:45:24;41.97;;;14.38;;
43160;SDS011;40968;52.342;5.528;2023-07-22T03:47:51;45.60;;;13.85;;
43160;SDS011;40968;52.342;5.528;2023-07-22T03:50:19;45.85;;;13.25;;
43160;SDS011;40968;52.342;5.528;2023-07-22T03:52:45;43.53;;;13.70;;
43160;SDS011;40968;52.342;5.528;2023-07-22T03:55:12;48.60;;;14.88;;
43160;SDS011;40968;52.342;5.528;2023-07-22T03:57:40;44.35;;;14.07;;
43160;SDS011;40968;52.342;5.528;2023-07-22T04:00:07;39.20;;;13.10;;
43160;SDS011;40968;52.342;5.528;2023-07-22T04:02:35;45.03;;;13.48;;
43160;SDS011;40968;52.342;5.528;2023-07-22T04:05:02;45.00;;;14.30;;
43160;SDS011;40968;52.342;5.528;2023-07-22T04:07:29;44.88;;;13.70;;
43160;SDS011;40968;52.342;5.528;2023-07-22T04:09:56;47.80;;;15.52;;
43160;SDS011;40968;52.342;5.528;2023-07-22T04:12:22;37.17;;;13.13;;
43160;SDS011;40968;52.342;5.528;2023-07-22T04:14:51;47.75;;;13.38;;
43160;SDS011;40968;52.342;5.528;2023-07-22T04:17:17;43.65;;;13.15;;
43160;SDS011;40968;52.342;5.528;2023-07-22T04:19:44;43.80;;;14.32;;
43160;SDS011;40968;52.342;5.528;2023-07-22T04:22:11;39.05;;;13.93;;
43160;SDS011;40968;52.342;5.528;2023-07-22T04:24:38;53.70;;;14.77;;
43160;SDS011;40968;52.342;5.528;2023-07-22T04:27:05;47.17;;;14.38;;
43160;SDS011;40968;52.342;5.528;2023-07-22T04:29:32;40.78;;;13.48;;
43160;SDS011;40968;52.342;5.528;2023-07-22T04:32:00;43.53;;;15.00;;
43160;SDS011;40968;52.342;5.528;2023-07-22T04:34:29;52.05;;;15.35;;
43160;SDS011;40968;52.342;5.528;2023-07-22T04:36:56;40.75;;;13.52;;
43160;SDS011;40968;52.342;5.528;2023-07-22T04:39:22;38.25;;;13.30;;
43160;SDS011;40968;52.342;5.528;2023-07-22T04:41:49;32.75;;;12.68;;
43160;SDS011;40968;52.342;5.528;2023-07-22T04:44:16;44.42;;;13.98;;
43160;SDS011;40968;52.342;5.528;2023-07-22T04:46:43;36.33;;;12.95;;
43160;SDS011;40968;52.342;5.528;2023-07-22T04:49:12;36.75;;;13.05;;
43160;SDS011;40968;52.342;5.528;2023-07-22T04:51:42;41.25;;;12.40;;
43160;SDS011;40968;52.342;5.528;2023-07-22T04:54:09;35.55;;;12.32;;
43160;SDS011;40968;52.342;5.528;2023-07-22T04:56:36;36.00;;;12.60;;
43160;SDS011;40968;52.342;5.528;2023-07-22T04:59:02;40.05;;;12.77;;
43160;SDS011;40968;52.342;5.528;2023-07-22T05:01:29;34.20;;;11.50;;
43160;SDS011;40968;52.342;5.528;2023-07-22T05:03:56;34.95;;;11.60;;
43160;SDS011;40968;52.342;5.528;2023-07-22T05:06:24;34.00;;;11.63;;
43160;SDS011;40968;52.342;5.528;2023-07-22T05:08:51;36.65;;;11.63;;
43160;SDS011;40968;52.342;5.528;2023-07-22T05:11:17;34.80;;;11.02;;
43160;SDS011;40968;52.342;5.528;2023-07-22T05:13:44;36.60;;;11.43;;
43160;SDS011;40968;52.342;5.528;2023-07-22T05:16:11;43.47;;;11.30;;
43160;SDS011;40968;52.342;5.528;2023-07-22T05:18:37;35.75;;;11.25;;
43160;SDS011;40968;52.342;5.528;2023-07-22T05:21:04;34.67;;;11.07;;
43160;SDS011;40968;52.342;5.528;2023-07-22T05:23:33;33.47;;;10.35;;
43160;SDS011;40968;52.342;5.528;2023-07-22T05:26:00;31.90;;;10.80;;
43160;SDS011;40968;52.342;5.528;2023-07-22T05:28:26;34.92;;;10.63;;
43160;SDS011;40968;52.342;5.528;2023-07-22T05:30:55;30.17;;;10.85;;
43160;SDS011;40968;52.342;5.528;2023-07-22T05:33:21;33.70;;;10.13;;
43160;SDS011;40968;52.342;5.528;2023-07-22T05:35:48;28.90;;;9.85;;
43160;SDS011;40968;52.342;5.528;2023-07-22T05:38:15;35.22;;;10.18;;
43160;SDS011;40968;52.342;5.528;2023-07-22T05:40:43;27.10;;;10.82;;
43160;SDS011;40968;52.342;5.528;2023-07-22T05:43:09;27.33;;;9.85;;
43160;SDS011;40968;52.342;5.528;2023-07-22T05:45:36;32.53;;;10.15;;
43160;SDS011;40968;52.342;5.528;2023-07-22T05:48:03;31.73;;;9.80;;
43160;SDS011;40968;52.342;5.528;2023-07-22T05:50:30;32.90;;;11.05;;
43160;SDS011;40968;52.342;5.528;2023-07-22T05:52:57;30.95;;;10.70;;
43160;SDS011;40968;52.342;5.528;2023-07-22T05:55:24;33.80;;;9.85;;
43160;SDS011;40968;52.342;5.528;2023-07-22T05:57:53;33.50;;;10.60;;
43160;SDS011;40968;52.342;5.528;2023-07-22T06:00:20;37.05;;;12.55;;
43160;SDS011;40968;52.342;5.528;2023-07-22T06:02:47;37.72;;;12.18;;
43160;SDS011;40968;52.342;5.528;2023-07-22T06:05:14;35.97;;;11.02;;
43160;SDS011;40968;52.342;5.528;2023-07-22T06:07:40;35.58;;;10.13;;
43160;SDS011;40968;52.342;5.528;2023-07-22T06:10:07;29.08;;;10.20;;
43160;SDS011;40968;52.342;5.528;2023-07-22T06:12:35;40.53;;;10.55;;
43160;SDS011;40968;52.342;5.528;2023-07-22T06:15:03;28.33;;;10.43;;
43160;SDS011;40968;52.342;5.528;2023-07-22T06:17:30;31.05;;;10.20;;
43160;SDS011;40968;52.342;5.528;2023-07-22T06:19:57;35.83;;;11.63;;
43160;SDS011;40968;52.342;5.528;2023-07-22T06:22:24;34.95;;;11.30;;
43160;SDS011;40968;52.342;5.528;2023-07-22T06:24:50;28.92;;;10.02;;
43160;SDS011;40968;52.342;5.528;2023-07-22T06:27:17;39.83;;;12.35;;
43160;SDS011;40968;52.342;5.528;2023-07-22T06:29:44;35.47;;;10.93;;
43160;SDS011;40968;52.342;5.528;2023-07-22T06:32:12;31.75;;;11.27;;
43160;SDS011;40968;52.342;5.528;2023-07-22T06:34:38;36.83;;;11.65;;
43160;SDS011;40968;52.342;5.528;2023-07-22T06:37:05;50.08;;;12.75;;
43160;SDS011;40968;52.342;5.528;2023-07-22T06:39:32;50.63;;;12.93;;
43160;SDS011;40968;52.342;5.528;2023-07-22T06:41:58;34.55;;;11.07;;
43160;SDS011;40968;52.342;5.528;2023-07-22T06:44:25;35.95;;;11.60;;
43160;SDS011;40968;52.342;5.528;2023-07-22T06:46:51;46.25;;;12.75;;
43160;SDS011;40968;52.342;5.528;2023-07-22T06:49:19;39.67;;;11.73;;
43160;SDS011;40968;52.342;5.528;2023-07-22T06:51:46;43.03;;;13.07;;
43160;SDS011;40968;52.342;5.528;2023-07-22T06:54:13;41.22;;;12.52;;
43160;SDS011;40968;52.342;5.528;2023-07-22T06:56:39;36.90;;;12.63;;
43160;SDS011;40968;52.342;5.528;2023-07-22T06:59:06;48.40;;;12.77;;
43160;SDS011;40968;52.342;5.528;2023-07-22T07:01:33;40.65;;;12.43;;
43160;SDS011;40968;52.342;5.528;2023-07-22T07:03:59;45.92;;;12.45;;
43160;SDS011;40968;52.342;5.528;2023-07-22T07:06:28;33.03;;;11.55;;
43160;SDS011;40968;52.342;5.528;2023-07-22T07:08:54;44.65;;;12.80;;
43160;SDS011;40968;52.342;5.528;2023-07-22T07:11:21;42.22;;;12.20;;
43160;SDS011;40968;52.342;5.528;2023-07-22T07:13:48;41.65;;;13.60;;
43160;SDS011;40968;52.342;5.528;2023-07-22T07:16:21;36.05;;;12.13;;
43160;SDS011;40968;52.342;5.528;2023-07-22T07:18:49;31.58;;;11.25;;
43160;SDS011;40968;52.342;5.528;2023-07-22T07:21:16;43.17;;;11.80;;
43160;SDS011;40968;52.342;5.528;2023-07-22T07:23:44;40.03;;;11.68;;
43160;SDS011;40968;52.342;5.528;2023-07-22T07:26:11;38.05;;;11.60;;
43160;SDS011;40968;52.342;5.528;2023-07-22T07:28:37;34.80;;;11.52;;
43160;SDS011;40968;52.342;5.528;2023-07-22T07:31:04;45.38;;;13.15;;
43160;SDS011;40968;52.342;5.528;2023-07-22T07:33:31;38.85;;;11.55;;
43160;SDS011;40968;52.342;5.528;2023-07-22T07:35:58;43.15;;;12.45;;
43160;SDS011;40968;52.342;5.528;2023-07-22T07:38:24;34.17;;;11.63;;
43160;SDS011;40968;52.342;5.528;2023-07-22T07:40:55;37.17;;;11.35;;
43160;SDS011;40968;52.342;5.528;2023-07-22T07:43:23;41.80;;;11.57;;
43160;SDS011;40968;52.342;5.528;2023-07-22T07:45:50;35.40;;;11.55;;
43160;SDS011;40968;52.342;5.528;2023-07-22T07:48:16;48.53;;;13.25;;
43160;SDS011;40968;52.342;5.528;2023-07-22T07:50:43;38.65;;;12.48;;
43160;SDS011;40968;52.342;5.528;2023-07-22T07:53:10;41.15;;;13.18;;
43160;SDS011;40968;52.342;5.528;2023-07-22T07:55:36;40.90;;;11.75;;
43160;SDS011;40968;52.342;5.528;2023-07-22T07:58:04;34.70;;;11.13;;
43160;SDS011;40968;52.342;5.528;2023-07-22T08:00:31;39.40;;;11.90;;
43160;SDS011;40968;52.342;5.528;2023-07-22T08:02:58;36.65;;;11.63;;
43160;SDS011;40968;52.342;5.528;2023-07-22T08:05:25;53.72;;;10.88;;
43160;SDS011;40968;52.342;5.528;2023-07-22T08:07:52;38.97;;;10.40;;
43160;SDS011;40968;52.342;5.528;2023-07-22T08:10:18;37.97;;;10.63;;
43160;SDS011;40968;52.342;5.528;2023-07-22T08:12:45;36.13;;;11.82;;
43160;SDS011;40968;52.342;5.528;2023-07-22T08:15:13;36.15;;;12.50;;
43160;SDS011;40968;52.342;5.528;2023-07-22T08:17:40;44.85;;;11.82;;
43160;SDS011;40968;52.342;5.528;2023-07-22T08:20:07;30.23;;;10.15;;
43160;SDS011;40968;52.342;5.528;2023-07-22T08:22:35;34.47;;;11.50;;
43160;SDS011;40968;52.342;5.528;2023-07-22T08:25:02;34.90;;;11.25;;
43160;SDS011;40968;52.342;5.528;2023-07-22T08:27:29;34.40;;;10.65;;
43160;SDS011;40968;52.342;5.528;2023-07-22T08:29:55;31.42;;;9.38;;
43160;SDS011;40968;52.342;5.528;2023-07-22T08:32:23;31.17;;;9.63;;
43160;SDS011;40968;52.342;5.528;2023-07-22T08:34:50;28.48;;;9.68;;
43160;SDS011;40968;52.342;5.528;2023-07-22T08:37:16;34.30;;;9.73;;
43160;SDS011;40968;52.342;5.528;2023-07-22T08:39:43;19.48;;;6.75;;
43160;SDS011;40968;52.342;5.528;2023-07-22T08:42:10;31.15;;;8.50;;
43160;SDS011;40968;52.342;5.528;2023-07-22T08:44:40;23.95;;;7.25;;
43160;SDS011;40968;52.342;5.528;2023-07-22T08:47:10;25.73;;;7.65;;
43160;SDS011;40968;52.342;5.528;2023-07-22T08:49:43;19.75;;;7.60;;
43160;SDS011;40968;52.342;5.528;2023-07-22T08:52:15;25.73;;;7.78;;
43160;SDS011;40968;52.342;5.528;2023-07-22T08:54:44;20.23;;;7.20;;
43160;SDS011;40968;52.342;5.528;2023-07-22T08:57:11;18.02;;;7.43;;
43160;SDS011;40968;52.342;5.528;2023-07-22T08:59:38;23.77;;;8.35;;
43160;SDS011;40968;52.342;5.528;2023-07-22T09:02:05;26.15;;;8.18;;
43160;SDS011;40968;52.342;5.528;2023-07-22T09:04:36;27.35;;;7.82;;
43160;SDS011;40968;52.342;5.528;2023-07-22T09:07:04;20.85;;;6.78;;
43160;SDS011;40968;52.342;5.528;2023-07-22T09:09:32;23.88;;;6.97;;
43160;SDS011;40968;52.342;5.528;2023-07-22T09:11:59;21.08;;;7.10;;
43160;SDS011;40968;52.342;5.528;2023-07-22T09:14:27;23.40;;;6.28;;
43160;SDS011;40968;52.342;5.528;2023-07-22T09:16:57;20.98;;;7.32;;
43160;SDS011;40968;52.342;5.528;2023-07-22T09:19:23;21.25;;;7.03;;
43160;SDS011;40968;52.342;5.528;2023-07-22T09:21:50;15.43;;;5.50;;
43160;SDS011;40968;52.342;5.528;2023-07-22T09:24:22;22.90;;;6.78;;
43160;SDS011;40968;52.342;5.528;2023-07-22T09:26:50;14.75;;;6.20;;
43160;SDS011;40968;52.342;5.528;2023-07-22T09:29:17;18.23;;;7.38;;
43160;SDS011;40968;52.342;5.528;2023-07-22T09:31:48;21.55;;;5.97;;
43160;SDS011;40968;52.342;5.528;2023-07-22T09:34:16;26.38;;;7.88;;
43160;SDS011;40968;52.342;5.528;2023-07-22T09:36:49;17.45;;;6.85;;
43160;SDS011;40968;52.342;5.528;2023-07-22T09:39:17;15.55;;;6.60;;
43160;SDS011;40968;52.342;5.528;2023-07-22T09:41:45;19.85;;;7.55;;
43160;SDS011;40968;52.342;5.528;2023-07-22T09:44:12;19.55;;;7.10;;
43160;SDS011;40968;52.342;5.528;2023-07-22T09:46:39;16.48;;;7.93;;
43160;SDS011;40968;52.342;5.528;2023-07-22T09:49:07;20.02;;;7.50;;
43160;SDS011;40968;52.342;5.528;2023-07-22T09:51:35;18.85;;;7.55;;
43160;SDS011;40968;52.342;5.528;2023-07-22T09:54:03;16.70;;;7.47;;
43160;SDS011;40968;52.342;5.528;2023-07-22T09:56:31;18.67;;;7.55;;
43160;SDS011;40968;52.342;5.528;2023-07-22T09:59:00;22.45;;;8.77;;
43160;SDS011;40968;52.342;5.528;2023-07-22T10:01:30;20.88;;;8.18;;
43160;SDS011;40968;52.342;5.528;2023-07-22T10:03:59;19.33;;;7.50;;
43160;SDS011;40968;52.342;5.528;2023-07-22T10:06:27;24.90;;;8.20;;
43160;SDS011;40968;52.342;5.528;2023-07-22T10:08:55;18.50;;;7.60;;
43160;SDS011;40968;52.342;5.528;2023-07-22T10:11:22;19.83;;;8.07;;
43160;SDS011;40968;52.342;5.528;2023-07-22T10:13:51;22.90;;;8.05;;
43160;SDS011;40968;52.342;5.528;2023-07-22T10:16:20;22.83;;;8.05;;
43160;SDS011;40968;52.342;5.528;2023-07-22T10:18:48;33.10;;;7.97;;
43160;SDS011;40968;52.342;5.528;2023-07-22T10:21:15;20.70;;;7.25;;
43160;SDS011;40968;52.342;5.528;2023-07-22T10:23:42;19.83;;;7.43;;
43160;SDS011;40968;52.342;5.528;2023-07-22T10:26:10;21.27;;;8.45;;
43160;SDS011;40968;52.342;5.528;2023-07-22T10:28:39;24.35;;;8.02;;
43160;SDS011;40968;52.342;5.528;2023-07-22T10:31:07;25.10;;;8.65;;
43160;SDS011;40968;52.342;5.528;2023-07-22T10:33:35;29.88;;;10.30;;
43160;SDS011;40968;52.342;5.528;2023-07-22T10:36:03;29.48;;;10.10;;
43160;SDS011;40968;52.342;5.528;2023-07-22T10:38:31;31.33;;;10.63;;
43160;SDS011;40968;52.342;5.528;2023-07-22T10:40:58;34.72;;;12.57;;
43160;SDS011;40968;52.342;5.528;2023-07-22T10:43:25;29.90;;;11.15;;
43160;SDS011;40968;52.342;5.528;2023-07-22T10:45:54;29.73;;;11.30;;
43160;SDS011;40968;52.342;5.528;2023-07-22T10:48:22;30.02;;;11.63;;
43160;SDS011;40968;52.342;5.528;2023-07-22T10:50:53;27.15;;;10.90;;
43160;SDS011;40968;52.342;5.528;2023-07-22T10:53:30;25.13;;;10.77;;
43160;SDS011;40968;52.342;5.528;2023-07-22T10:56:03;24.52;;;10.15;;
43160;SDS011;40968;52.342;5.528;2023-07-22T10:58:57;24.70;;;9.45;;
43160;SDS011;40968;52.342;5.528;2023-07-22T11:01:30;25.50;;;9.20;;
43160;SDS011;40968;52.342;5.528;2023-07-22T11:04:09;23.38;;;9.02;;
43160;SDS011;40968;52.342;5.528;2023-07-22T11:06:52;22.02;;;8.88;;
43160;SDS011;40968;52.342;5.528;2023-07-22T11:09:33;24.65;;;9.77;;
43160;SDS011;40968;52.342;5.528;2023-07-22T11:12:02;22.92;;;9.93;;
43160;SDS011;40968;52.342;5.528;2023-07-22T11:14:30;27.08;;;10.40;;
43160;SDS011;40968;52.342;5.528;2023-07-22T11:16:58;34.55;;;10.32;;
43160;SDS011;40968;52.342;5.528;2023-07-22T11:19:28;21.63;;;8.77;;
43160;SDS011;40968;52.342;5.528;2023-07-22T11:21:57;15.75;;;5.38;;
43160;SDS011;40968;52.342;5.528;2023-07-22T11:24:24;19.30;;;5.40;;
43160;SDS011;40968;52.342;5.528;2023-07-22T11:26:51;13.80;;;5.25;;
43160;SDS011;40968;52.342;5.528;2023-07-22T11:29:19;15.68;;;5.20;;
43160;SDS011;40968;52.342;5.528;2023-07-22T11:31:47;14.23;;;5.80;;
43160;SDS011;40968;52.342;5.528;2023-07-22T11:34:16;11.15;;;5.47;;
43160;SDS011;40968;52.342;5.528;2023-07-22T11:36:44;14.85;;;5.13;;
43160;SDS011;40968;52.342;5.528;2023-07-22T11:39:12;15.32;;;5.57;;
43160;SDS011;40968;52.342;5.528;2023-07-22T11:41:41;12.70;;;5.95;;
43160;SDS011;40968;52.342;5.528;2023-07-22T11:44:08;12.45;;;5.80;;
43160;SDS011;40968;52.342;5.528;2023-07-22T11:46:46;14.37;;;6.13;;
43160;SDS011;40968;52.342;5.528;2023-07-22T11:49:15;16.92;;;5.95;;
43160;SDS011;40968;52.342;5.528;2023-07-22T11:51:48;12.20;;;6.22;;
43160;SDS011;40968;52.342;5.528;2023-07-22T11:54:16;12.15;;;5.57;;
43160;SDS011;40968;52.342;5.528;2023-07-22T11:56:43;16.70;;;6.53;;
43160;SDS011;40968;52.342;5.528;2023-07-22T11:59:09;15.05;;;6.72;;
43160;SDS011;40968;52.342;5.528;2023-07-22T12:01:36;16.33;;;5.90;;
43160;SDS011;40968;52.342;5.528;2023-07-22T12:04:03;12.32;;;5.60;;
43160;SDS011;40968;52.342;5.528;2023-07-22T12:06:36;14.73;;;5.25;;
43160;SDS011;40968;52.342;5.528;2023-07-22T12:09:03;12.43;;;5.20;;
43160;SDS011;40968;52.342;5.528;2023-07-22T12:11:32;15.00;;;6.43;;
43160;SDS011;40968;52.342;5.528;2023-07-22T12:14:09;13.82;;;5.63;;
43160;SDS011;40968;52.342;5.528;2023-07-22T12:16:37;15.82;;;5.88;;
43160;SDS011;40968;52.342;5.528;2023-07-22T12:19:05;11.95;;;5.55;;
43160;SDS011;40968;52.342;5.528;2023-07-22T12:21:33;16.50;;;5.80;;
43160;SDS011;40968;52.342;5.528;2023-07-22T12:24:00;16.40;;;6.80;;
43160;SDS011;40968;52.342;5.528;2023-07-22T12:26:27;18.20;;;6.07;;
43160;SDS011;40968;52.342;5.528;2023-07-22T12:28:55;15.90;;;5.55;;
43160;SDS011;40968;52.342;5.528;2023-07-22T12:31:21;17.15;;;5.47;;
43160;SDS011;40968;52.342;5.528;2023-07-22T12:33:48;14.05;;;5.22;;
43160;SDS011;40968;52.342;5.528;2023-07-22T12:36:15;12.82;;;5.53;;
43160;SDS011;40968;52.342;5.528;2023-07-22T12:38:41;12.25;;;5.13;;
43160;SDS011;40968;52.342;5.528;2023-07-22T12:41:08;17.45;;;5.60;;
43160;SDS011;40968;52.342;5.528;2023-07-22T12:43:35;14.88;;;5.57;;
43160;SDS011;40968;52.342;5.528;2023-07-22T12:46:03;16.85;;;4.85;;
43160;SDS011;40968;52.342;5.528;2023-07-22T12:48:30;14.80;;;5.45;;
43160;SDS011;40968;52.342;5.528;2023-07-22T12:50:57;9.82;;;5.18;;
43160;SDS011;40968;52.342;5.528;2023-07-22T12:53:24;15.80;;;5.45;;
43160;SDS011;40968;52.342;5.528;2023-07-22T12:55:51;15.20;;;5.43;;
43160;SDS011;40968;52.342;5.528;2023-07-22T12:58:17;16.77;;;5.68;;
43160;SDS011;40968;52.342;5.528;2023-07-22T13:00:44;12.60;;;5.72;;
43160;SDS011;40968;52.342;5.528;2023-07-22T13:03:12;15.93;;;5.95;;
43160;SDS011;40968;52.342;5.528;2023-07-22T13:05:39;12.70;;;5.30;;
43160;SDS011;40968;52.342;5.528;2023-07-22T13:08:05;17.38;;;5.57;;
43160;SDS011;40968;52.342;5.528;2023-07-22T13:10:32;11.27;;;5.20;;
43160;SDS011;40968;52.342;5.528;2023-07-22T13:13:02;12.80;;;5.47;;
43160;SDS011;40968;52.342;5.528;2023-07-22T13:15:29;14.23;;;6.07;;
43160;SDS011;40968;52.342;5.528;2023-07-22T13:17:55;16.83;;;6.22;;
43160;SDS011;40968;52.342;5.528;2023-07-22T13:20:23;17.48;;;5.82;;
43160;SDS011;40968;52.342;5.528;2023-07-22T13:22:50;14.23;;;6.18;;
43160;SDS011;40968;52.342;5.528;2023-07-22T13:25:17;19.45;;;6.28;;
43160;SDS011;40968;52.342;5.528;2023-07-22T13:27:44;21.33;;;5.90;;
43160;SDS011;40968;52.342;5.528;2023-07-22T13:30:10;13.20;;;5.65;;
43160;SDS011;40968;52.342;5.528;2023-07-22T13:32:38;16.73;;;6.65;;
43160;SDS011;40968;52.342;5.528;2023-07-22T13:35:05;23.20;;;7.43;;
43160;SDS011;40968;52.342;5.528;2023-07-22T13:37:34;19.02;;;6.25;;
43160;SDS011;40968;52.342;5.528;2023-07-22T13:40:00;18.65;;;5.88;;
43160;SDS011;40968;52.342;5.528;2023-07-22T13:42:34;14.30;;;5.57;;
43160;SDS011;40968;52.342;5.528;2023-07-22T13:45:01;15.10;;;5.63;;
43160;SDS011;40968;52.342;5.528;2023-07-22T13:47:27;16.13;;;6.03;;
43160;SDS011;40968;52.342;5.528;2023-07-22T13:49:54;14.20;;;5.07;;
43160;SDS011;40968;52.342;5.528;2023-07-22T13:52:21;13.00;;;5.63;;
43160;SDS011;40968;52.342;5.528;2023-07-22T13:54:49;14.82;;;4.55;;
43160;SDS011;40968;52.342;5.528;2023-07-22T13:57:15;13.75;;;4.72;;
43160;SDS011;40968;52.342;5.528;2023-07-22T13:59:42;10.98;;;4.50;;
43160;SDS011;40968;52.342;5.528;2023-07-22T14:02:08;12.38;;;4.30;;
43160;SDS011;40968;52.342;5.528;2023-07-22T14:04:35;6.10;;;2.83;;
43160;SDS011;40968;52.342;5.528;2023-07-22T14:07:02;9.73;;;2.28;;
43160;SDS011;40968;52.342;5.528;2023-07-22T14:09:29;7.50;;;3.15;;
43160;SDS011;40968;52.342;5.528;2023-07-22T14:11:57;6.53;;;2.78;;
43160;SDS011;40968;52.342;5.528;2023-07-22T14:14:23;5.30;;;2.70;;
43160;SDS011;40968;52.342;5.528;2023-07-22T14:16:53;9.93;;;2.90;;
43160;SDS011;40968;52.342;5.528;2023-07-22T14:19:20;9.95;;;3.55;;
43160;SDS011;40968;52.342;5.528;2023-07-22T14:21:47;10.63;;;3.92;;
43160;SDS011;40968;52.342;5.528;2023-07-22T14:24:14;10.38;;;3.63;;
43160;SDS011;40968;52.342;5.528;2023-07-22T14:26:40;9.50;;;3.65;;
43160;SDS011;40968;52.342;5.528;2023-07-22T14:29:08;9.30;;;4.07;;
43160;SDS011;40968;52.342;5.528;2023-07-22T14:31:35;6.10;;;3.25;;